WLF1331 EKCH-LGAV
Flight info
| Callsign | WLF1331 |
|---|---|
| Flight time | 2h 48m |
| Altitude | 37000 |
| Route | SIMEG Z493 XELOL DCT VAGON DCT REGLI DCT AMRAX DCT PARAK DCT RAXAD DCT MAKED UP20 ROPOX |
| Aircraft | B738/M-SDE2E3FGHIRWXY/LB1 |
Departure
| Time | 2026-05-04 19:14 |
|---|---|
| Airport | Copenhagen Kastrup Airport (EKCH) |
Arrival
| Time | 2026-05-04 22:03 |
|---|---|
| Airport | Athens Eleftherios Venizelos International Airport (LGAV) |
| Time | Latitude | Longitude | Altitude | Speed | Heading |
|---|---|---|---|---|---|
| 2026-05-04 18:41 | 55.62734 | 12.65180 | 23 ft | 0 kts | 357° |
| 2026-05-04 18:46 | 55.62733 | 12.65180 | 23 ft | 0 kts | 357° |
| 2026-05-04 18:49 | 55.62736 | 12.65179 | 23 ft | 1 kts | 356° |
| 2026-05-04 18:59 | 55.62724 | 12.65181 | 23 ft | 4 kts | 356° |
| 2026-05-04 18:59 | 55.62702 | 12.65183 | 28 ft | 2 kts | 356° |
| 2026-05-04 18:59 | 55.62676 | 12.65186 | 23 ft | 4 kts | 357° |
| 2026-05-04 18:59 | 55.62649 | 12.65187 | 25 ft | 4 kts | 2° |
| 2026-05-04 19:00 | 55.62628 | 12.65183 | 23 ft | 3 kts | 9° |
| 2026-05-04 19:00 | 55.62610 | 12.65178 | 23 ft | 0 kts | 9° |
| 2026-05-04 19:02 | 55.62613 | 12.65179 | 23 ft | 2 kts | 12° |
| 2026-05-04 19:03 | 55.62639 | 12.65205 | 23 ft | 7 kts | 41° |
| 2026-05-04 19:03 | 55.62645 | 12.65296 | 26 ft | 9 kts | 127° |
| 2026-05-04 19:03 | 55.62589 | 12.65322 | 27 ft | 9 kts | 178° |
| 2026-05-04 19:03 | 55.62522 | 12.65324 | 24 ft | 11 kts | 179° |
| 2026-05-04 19:04 | 55.62440 | 12.65328 | 26 ft | 13 kts | 178° |
| 2026-05-04 19:04 | 55.62339 | 12.65333 | 23 ft | 13 kts | 181° |
| 2026-05-04 19:04 | 55.62291 | 12.65220 | 23 ft | 13 kts | 265° |
| 2026-05-04 19:04 | 55.62281 | 12.65068 | 24 ft | 13 kts | 291° |
| 2026-05-04 19:05 | 55.62328 | 12.64940 | 24 ft | 12 kts | 302° |
| 2026-05-04 19:05 | 55.62358 | 12.64852 | 23 ft | 0 kts | 300° |
| 2026-05-04 19:05 | 55.62359 | 12.64851 | 26 ft | 1 kts | 300° |
| 2026-05-04 19:06 | 55.62352 | 12.64800 | 26 ft | 7 kts | 245° |
| 2026-05-04 19:06 | 55.62322 | 12.64689 | 24 ft | 12 kts | 245° |
| 2026-05-04 19:06 | 55.62294 | 12.64575 | 24 ft | 7 kts | 246° |
| 2026-05-04 19:06 | 55.62274 | 12.64499 | 26 ft | 7 kts | 246° |
| 2026-05-04 19:07 | 55.62245 | 12.64399 | 21 ft | 12 kts | 230° |
| 2026-05-04 19:07 | 55.62161 | 12.64313 | 23 ft | 15 kts | 206° |
| 2026-05-04 19:07 | 55.62071 | 12.64235 | 23 ft | 14 kts | 206° |
| 2026-05-04 19:07 | 55.61984 | 12.64163 | 23 ft | 13 kts | 205° |
| 2026-05-04 19:08 | 55.61915 | 12.64107 | 27 ft | 0 kts | 204° |
| 2026-05-04 19:08 | 55.61914 | 12.64106 | 23 ft | 1 kts | 205° |
| 2026-05-04 19:08 | 55.61890 | 12.64085 | 23 ft | 3 kts | 204° |
| 2026-05-04 19:08 | 55.61874 | 12.64076 | 23 ft | 3 kts | 194° |
| 2026-05-04 19:09 | 55.61852 | 12.64073 | 23 ft | 0 kts | 180° |
| 2026-05-04 19:09 | 55.61853 | 12.64073 | 23 ft | 0 kts | 180° |
| 2026-05-04 19:11 | 55.61828 | 12.64074 | 23 ft | 13 kts | 178° |
| 2026-05-04 19:11 | 55.61783 | 12.64079 | 23 ft | 6 kts | 176° |
| 2026-05-04 19:11 | 55.61714 | 12.64088 | 24 ft | 14 kts | 176° |
| 2026-05-04 19:11 | 55.61634 | 12.64079 | 26 ft | 10 kts | 208° |
| 2026-05-04 19:12 | 55.61619 | 12.64059 | 26 ft | 0 kts | 219° |
| 2026-05-04 19:13 | 55.61574 | 12.63993 | 26 ft | 25 kts | 220° |
| 2026-05-04 19:13 | 55.61260 | 12.63503 | 27 ft | 95 kts | 221° |
| 2026-05-04 19:14 | 55.60615 | 12.62505 | 26 ft | 152 kts | 219° |
| 2026-05-04 19:14 | 55.59734 | 12.61187 | 496 ft | 166 kts | 224° |
| 2026-05-04 19:14 | 55.58894 | 12.59872 | 1342 ft | 163 kts | 225° |
| 2026-05-04 19:14 | 55.58016 | 12.58535 | 1958 ft | 175 kts | 224° |
| 2026-05-04 19:15 | 55.57015 | 12.57016 | 2259 ft | 204 kts | 224° |
| 2026-05-04 19:15 | 55.55768 | 12.55538 | 2452 ft | 231 kts | 202° |
| 2026-05-04 19:15 | 55.54169 | 12.54646 | 2674 ft | 252 kts | 200° |
| 2026-05-04 19:15 | 55.52462 | 12.53650 | 3236 ft | 262 kts | 201° |
| 2026-05-04 19:16 | 55.50743 | 12.52616 | 4177 ft | 259 kts | 201° |
| 2026-05-04 19:16 | 55.49036 | 12.51574 | 5048 ft | 261 kts | 202° |
| 2026-05-04 19:16 | 55.47313 | 12.50515 | 5880 ft | 264 kts | 202° |
| 2026-05-04 19:16 | 55.45529 | 12.49707 | 6686 ft | 271 kts | 186° |
| 2026-05-04 19:17 | 55.43653 | 12.50373 | 7409 ft | 284 kts | 157° |
| 2026-05-04 19:17 | 55.42132 | 12.52622 | 8106 ft | 295 kts | 126° |
| 2026-05-04 19:17 | 55.41323 | 12.55987 | 8836 ft | 302 kts | 108° |
| 2026-05-04 19:17 | 55.40745 | 12.59569 | 9557 ft | 307 kts | 107° |
| 2026-05-04 19:18 | 55.40165 | 12.63209 | 10213 ft | 313 kts | 107° |
| 2026-05-04 19:18 | 55.39535 | 12.67016 | 10421 ft | 335 kts | 108° |
| 2026-05-04 19:18 | 55.38847 | 12.71075 | 10595 ft | 357 kts | 108° |
| 2026-05-04 19:18 | 55.38110 | 12.75374 | 10809 ft | 376 kts | 108° |
| 2026-05-04 19:19 | 55.37345 | 12.79820 | 11300 ft | 384 kts | 108° |
| 2026-05-04 19:19 | 55.36565 | 12.84343 | 11942 ft | 388 kts | 108° |
| 2026-05-04 19:19 | 55.35776 | 12.88915 | 12603 ft | 392 kts | 109° |
| 2026-05-04 19:19 | 55.34895 | 12.93468 | 13250 ft | 396 kts | 116° |
| 2026-05-04 19:20 | 55.33523 | 12.97654 | 13895 ft | 396 kts | 128° |
| 2026-05-04 19:20 | 55.31916 | 13.01605 | 14564 ft | 398 kts | 129° |
| 2026-05-04 19:20 | 55.30288 | 13.05557 | 15232 ft | 402 kts | 129° |
| 2026-05-04 19:20 | 55.28650 | 13.09542 | 15881 ft | 406 kts | 129° |
| 2026-05-04 19:21 | 55.26995 | 13.13593 | 16528 ft | 409 kts | 129° |
| 2026-05-04 19:21 | 55.25335 | 13.17680 | 17169 ft | 413 kts | 128° |
| 2026-05-04 19:21 | 55.23665 | 13.21808 | 17808 ft | 417 kts | 128° |
| 2026-05-04 19:21 | 55.21982 | 13.25974 | 18409 ft | 421 kts | 128° |
| 2026-05-04 19:22 | 55.20350 | 13.30015 | 18930 ft | 424 kts | 128° |
| 2026-05-04 19:22 | 55.18670 | 13.34171 | 19460 ft | 427 kts | 128° |
| 2026-05-04 19:22 | 55.16992 | 13.38316 | 19967 ft | 431 kts | 129° |
| 2026-05-04 19:22 | 55.15345 | 13.42376 | 20460 ft | 434 kts | 129° |
| 2026-05-04 19:23 | 55.13586 | 13.46709 | 20973 ft | 438 kts | 129° |
| 2026-05-04 19:23 | 55.11816 | 13.51059 | 21485 ft | 441 kts | 129° |
| 2026-05-04 19:23 | 55.10032 | 13.55434 | 21986 ft | 444 kts | 129° |
| 2026-05-04 19:23 | 55.08524 | 13.59124 | 22398 ft | 447 kts | 129° |
| 2026-05-04 19:24 | 55.06710 | 13.63559 | 22877 ft | 451 kts | 129° |
| 2026-05-04 19:24 | 55.04885 | 13.68012 | 23348 ft | 454 kts | 129° |
| 2026-05-04 19:24 | 55.03036 | 13.72512 | 23776 ft | 457 kts | 129° |
| 2026-05-04 19:24 | 55.01177 | 13.77030 | 24159 ft | 460 kts | 129° |
| 2026-05-04 19:25 | 54.99302 | 13.81579 | 24435 ft | 466 kts | 130° |
| 2026-05-04 19:25 | 54.97393 | 13.86198 | 24531 ft | 476 kts | 131° |
| 2026-05-04 19:25 | 54.95447 | 13.90899 | 24858 ft | 479 kts | 131° |
| 2026-05-04 19:25 | 54.93497 | 13.95609 | 25302 ft | 480 kts | 131° |
| 2026-05-04 19:26 | 54.91546 | 14.00314 | 25701 ft | 482 kts | 131° |
| 2026-05-04 19:26 | 54.89602 | 14.04989 | 26022 ft | 485 kts | 131° |
| 2026-05-04 19:26 | 54.87592 | 14.09812 | 26348 ft | 489 kts | 131° |
| 2026-05-04 19:26 | 54.85626 | 14.14522 | 26696 ft | 491 kts | 131° |
| 2026-05-04 19:27 | 54.83615 | 14.19331 | 27034 ft | 494 kts | 131° |
| 2026-05-04 19:27 | 54.81594 | 14.24158 | 27336 ft | 496 kts | 131° |
| 2026-05-04 19:27 | 54.79551 | 14.29004 | 27627 ft | 499 kts | 133° |
| 2026-05-04 19:27 | 54.77278 | 14.33507 | 27902 ft | 494 kts | 142° |
| 2026-05-04 19:28 | 54.74685 | 14.37340 | 28214 ft | 486 kts | 152° |
| 2026-05-04 19:28 | 54.71869 | 14.40527 | 28547 ft | 484 kts | 155° |
| 2026-05-04 19:28 | 54.69037 | 14.43576 | 28863 ft | 483 kts | 158° |
| 2026-05-04 19:28 | 54.66148 | 14.46262 | 29208 ft | 481 kts | 161° |
| 2026-05-04 19:29 | 54.63484 | 14.48548 | 29463 ft | 480 kts | 162° |
| 2026-05-04 19:29 | 54.61129 | 14.50501 | 29751 ft | 479 kts | 162° |
| 2026-05-04 19:29 | 54.58463 | 14.52689 | 30135 ft | 478 kts | 162° |
| 2026-05-04 19:29 | 54.56164 | 14.54583 | 30454 ft | 476 kts | 162° |
| 2026-05-04 19:30 | 54.54657 | 14.55832 | 30664 ft | 475 kts | 162° |
| 2026-05-04 19:30 | 54.52530 | 14.57604 | 30945 ft | 474 kts | 162° |
| 2026-05-04 19:30 | 54.50170 | 14.59584 | 31233 ft | 473 kts | 161° |
| 2026-05-04 19:30 | 54.47819 | 14.61568 | 31493 ft | 472 kts | 161° |
| 2026-05-04 19:31 | 54.44968 | 14.63982 | 31835 ft | 471 kts | 161° |
| 2026-05-04 19:31 | 54.42069 | 14.66442 | 32187 ft | 471 kts | 161° |
| 2026-05-04 19:31 | 54.39099 | 14.68962 | 32507 ft | 470 kts | 161° |
| 2026-05-04 19:31 | 54.36252 | 14.71373 | 32817 ft | 469 kts | 161° |
| 2026-05-04 19:32 | 54.33325 | 14.73846 | 33108 ft | 469 kts | 161° |
| 2026-05-04 19:32 | 54.30390 | 14.76319 | 33345 ft | 470 kts | 161° |
| 2026-05-04 19:32 | 54.27456 | 14.78787 | 33660 ft | 470 kts | 161° |
| 2026-05-04 19:32 | 54.24530 | 14.81247 | 34024 ft | 467 kts | 160° |
| 2026-05-04 19:33 | 54.21614 | 14.83693 | 34284 ft | 467 kts | 160° |
| 2026-05-04 19:33 | 54.18699 | 14.86136 | 34497 ft | 467 kts | 160° |
| 2026-05-04 19:33 | 54.15779 | 14.88582 | 34743 ft | 467 kts | 160° |
| 2026-05-04 19:33 | 54.12868 | 14.91014 | 35026 ft | 465 kts | 160° |
| 2026-05-04 19:34 | 54.09961 | 14.93439 | 35300 ft | 464 kts | 160° |
| 2026-05-04 19:34 | 54.07059 | 14.95854 | 35482 ft | 465 kts | 160° |
| 2026-05-04 19:34 | 54.04152 | 14.98268 | 35610 ft | 467 kts | 160° |
| 2026-05-04 19:34 | 54.01220 | 15.00699 | 35780 ft | 468 kts | 159° |
| 2026-05-04 19:35 | 53.98298 | 15.03121 | 36066 ft | 466 kts | 159° |
| 2026-05-04 19:35 | 53.95386 | 15.05532 | 36361 ft | 464 kts | 159° |
| 2026-05-04 19:35 | 53.92487 | 15.07929 | 36620 ft | 463 kts | 159° |
| 2026-05-04 19:35 | 53.89589 | 15.10318 | 36817 ft | 463 kts | 159° |
| 2026-05-04 19:36 | 53.86690 | 15.12703 | 36977 ft | 464 kts | 159° |
| 2026-05-04 19:36 | 53.80855 | 15.17496 | 36978 ft | 466 kts | 159° |
| 2026-05-04 19:37 | 53.75057 | 15.22284 | 36969 ft | 461 kts | 159° |
| 2026-05-04 19:37 | 53.69285 | 15.27003 | 36973 ft | 460 kts | 159° |
| 2026-05-04 19:38 | 53.63520 | 15.31687 | 36979 ft | 460 kts | 159° |
| 2026-05-04 19:38 | 53.57740 | 15.36339 | 36981 ft | 460 kts | 159° |
| 2026-05-04 19:39 | 53.52002 | 15.40974 | 36975 ft | 461 kts | 159° |
| 2026-05-04 19:39 | 53.46216 | 15.45644 | 36967 ft | 462 kts | 159° |
| 2026-05-04 19:40 | 53.40377 | 15.50344 | 36974 ft | 463 kts | 159° |
| 2026-05-04 19:40 | 53.34601 | 15.54975 | 36968 ft | 464 kts | 159° |
| 2026-05-04 19:41 | 53.28773 | 15.59633 | 36959 ft | 464 kts | 159° |
| 2026-05-04 19:41 | 53.22944 | 15.64276 | 36967 ft | 464 kts | 159° |
| 2026-05-04 19:42 | 53.17119 | 15.68906 | 36966 ft | 463 kts | 159° |
| 2026-05-04 19:42 | 53.11306 | 15.73511 | 36956 ft | 463 kts | 159° |
| 2026-05-04 19:43 | 53.05499 | 15.78098 | 36961 ft | 462 kts | 159° |
| 2026-05-04 19:43 | 52.99696 | 15.82664 | 36952 ft | 461 kts | 159° |
| 2026-05-04 19:44 | 52.93902 | 15.87214 | 36958 ft | 460 kts | 160° |
| 2026-05-04 19:44 | 52.88128 | 15.91734 | 36948 ft | 459 kts | 159° |
| 2026-05-04 19:45 | 52.82349 | 15.96243 | 36946 ft | 458 kts | 160° |
| 2026-05-04 19:45 | 52.76590 | 16.00723 | 36952 ft | 458 kts | 160° |
| 2026-05-04 19:46 | 52.70842 | 16.05181 | 36949 ft | 458 kts | 160° |
| 2026-05-04 19:46 | 52.65081 | 16.09636 | 36946 ft | 458 kts | 160° |
| 2026-05-04 19:47 | 52.59314 | 16.14085 | 36937 ft | 458 kts | 160° |
| 2026-05-04 19:47 | 52.53549 | 16.18518 | 36938 ft | 458 kts | 160° |
| 2026-05-04 19:48 | 52.47772 | 16.22945 | 36954 ft | 459 kts | 159° |
| 2026-05-04 19:48 | 52.41980 | 16.27373 | 36949 ft | 460 kts | 160° |
| 2026-05-04 19:49 | 52.36168 | 16.31803 | 36947 ft | 461 kts | 160° |
| 2026-05-04 19:49 | 52.30337 | 16.36234 | 36945 ft | 463 kts | 160° |
| 2026-05-04 19:50 | 52.24493 | 16.40664 | 36942 ft | 464 kts | 160° |
| 2026-05-04 19:50 | 52.18635 | 16.45091 | 36941 ft | 464 kts | 160° |
| 2026-05-04 19:51 | 52.12767 | 16.49511 | 36940 ft | 464 kts | 159° |
| 2026-05-04 19:51 | 52.06900 | 16.53921 | 36923 ft | 464 kts | 159° |
| 2026-05-04 19:52 | 52.01134 | 16.58241 | 36933 ft | 464 kts | 159° |
| 2026-05-04 19:52 | 51.95278 | 16.62614 | 36938 ft | 463 kts | 159° |
| 2026-05-04 19:53 | 51.89440 | 16.66962 | 36939 ft | 462 kts | 159° |
| 2026-05-04 19:53 | 51.83599 | 16.71297 | 36934 ft | 461 kts | 159° |
| 2026-05-04 19:54 | 51.77819 | 16.75577 | 36925 ft | 460 kts | 159° |
| 2026-05-04 19:54 | 51.72008 | 16.79869 | 36929 ft | 459 kts | 159° |
| 2026-05-04 19:55 | 51.66205 | 16.84140 | 36940 ft | 458 kts | 159° |
| 2026-05-04 19:55 | 51.60399 | 16.88403 | 36936 ft | 459 kts | 159° |
| 2026-05-04 19:56 | 51.54590 | 16.92657 | 36933 ft | 459 kts | 159° |
| 2026-05-04 19:56 | 51.48777 | 16.96903 | 36926 ft | 459 kts | 159° |
| 2026-05-04 19:57 | 51.42961 | 17.01136 | 36940 ft | 459 kts | 159° |
| 2026-05-04 19:57 | 51.37136 | 17.05364 | 36936 ft | 460 kts | 159° |
| 2026-05-04 19:58 | 51.31303 | 17.09588 | 36942 ft | 460 kts | 159° |
| 2026-05-04 19:58 | 51.25462 | 17.13806 | 36923 ft | 461 kts | 159° |
| 2026-05-04 19:59 | 51.19622 | 17.18010 | 36933 ft | 461 kts | 159° |
| 2026-05-04 19:59 | 51.13780 | 17.22204 | 36943 ft | 460 kts | 159° |
| 2026-05-04 20:00 | 51.07940 | 17.26386 | 36932 ft | 460 kts | 159° |
| 2026-05-04 20:00 | 51.02102 | 17.30552 | 36937 ft | 460 kts | 159° |
| 2026-05-04 20:01 | 50.96311 | 17.34676 | 36938 ft | 459 kts | 159° |
| 2026-05-04 20:01 | 50.90475 | 17.38818 | 36943 ft | 459 kts | 159° |
| 2026-05-04 20:02 | 50.84651 | 17.42942 | 36942 ft | 459 kts | 159° |
| 2026-05-04 20:02 | 50.78822 | 17.47060 | 36943 ft | 459 kts | 159° |
| 2026-05-04 20:03 | 50.72990 | 17.51168 | 36951 ft | 459 kts | 159° |
| 2026-05-04 20:03 | 50.67159 | 17.55263 | 36938 ft | 458 kts | 158° |
| 2026-05-04 20:04 | 50.61332 | 17.59342 | 36954 ft | 458 kts | 158° |
| 2026-05-04 20:04 | 50.55505 | 17.63412 | 36956 ft | 458 kts | 159° |
| 2026-05-04 20:05 | 50.49674 | 17.67474 | 36957 ft | 459 kts | 159° |
| 2026-05-04 20:05 | 50.43970 | 17.71436 | 36956 ft | 459 kts | 159° |
| 2026-05-04 20:06 | 50.38147 | 17.75471 | 36964 ft | 459 kts | 159° |
| 2026-05-04 20:06 | 50.32392 | 17.79448 | 36963 ft | 459 kts | 158° |
| 2026-05-04 20:07 | 50.26644 | 17.83408 | 36966 ft | 460 kts | 158° |
| 2026-05-04 20:07 | 50.20898 | 17.87359 | 36975 ft | 460 kts | 158° |
| 2026-05-04 20:08 | 50.15040 | 17.91377 | 36972 ft | 460 kts | 158° |
| 2026-05-04 20:08 | 50.09218 | 17.95358 | 36980 ft | 460 kts | 158° |
| 2026-05-04 20:09 | 50.03355 | 17.99356 | 36979 ft | 460 kts | 158° |
| 2026-05-04 20:09 | 49.97534 | 18.03512 | 36977 ft | 461 kts | 156° |
| 2026-05-04 20:10 | 49.91747 | 18.07814 | 36995 ft | 461 kts | 156° |
| 2026-05-04 20:10 | 49.85963 | 18.12101 | 36992 ft | 460 kts | 156° |
| 2026-05-04 20:11 | 49.80178 | 18.16345 | 36994 ft | 460 kts | 157° |
| 2026-05-04 20:11 | 49.74379 | 18.20574 | 36997 ft | 460 kts | 157° |
| 2026-05-04 20:12 | 49.68588 | 18.24785 | 36994 ft | 461 kts | 157° |
| 2026-05-04 20:12 | 49.62776 | 18.29000 | 36989 ft | 461 kts | 156° |
| 2026-05-04 20:13 | 49.56964 | 18.33204 | 36997 ft | 461 kts | 156° |
| 2026-05-04 20:13 | 49.51155 | 18.37397 | 37010 ft | 461 kts | 156° |
| 2026-05-04 20:14 | 49.45332 | 18.41581 | 37012 ft | 462 kts | 156° |
| 2026-05-04 20:14 | 49.39511 | 18.45761 | 37019 ft | 462 kts | 156° |
| 2026-05-04 20:15 | 49.33683 | 18.49935 | 37021 ft | 462 kts | 156° |
| 2026-05-04 20:15 | 49.27868 | 18.54088 | 37015 ft | 461 kts | 156° |
| 2026-05-04 20:16 | 49.23028 | 18.57536 | 37018 ft | 461 kts | 156° |
| 2026-05-04 20:16 | 49.17210 | 18.61670 | 37039 ft | 461 kts | 156° |
| 2026-05-04 20:17 | 49.11378 | 18.65802 | 37028 ft | 462 kts | 156° |
| 2026-05-04 20:17 | 49.05552 | 18.69920 | 37040 ft | 462 kts | 156° |
| 2026-05-04 20:18 | 48.99720 | 18.74035 | 37038 ft | 461 kts | 156° |
| 2026-05-04 20:18 | 48.93893 | 18.78133 | 37056 ft | 462 kts | 156° |
| 2026-05-04 20:19 | 48.88057 | 18.82226 | 37051 ft | 462 kts | 156° |
| 2026-05-04 20:19 | 48.82219 | 18.86311 | 37050 ft | 462 kts | 156° |
| 2026-05-04 20:20 | 48.76376 | 18.90388 | 37051 ft | 463 kts | 156° |
| 2026-05-04 20:20 | 48.70517 | 18.94466 | 37052 ft | 463 kts | 156° |
| 2026-05-04 20:21 | 48.64663 | 18.98530 | 37056 ft | 464 kts | 156° |
| 2026-05-04 20:21 | 48.55866 | 19.04617 | 37051 ft | 463 kts | 156° |
| 2026-05-04 20:22 | 48.50041 | 19.08636 | 37064 ft | 463 kts | 156° |
| 2026-05-04 20:22 | 48.44172 | 19.12674 | 37057 ft | 463 kts | 156° |
| 2026-05-04 20:23 | 48.38310 | 19.16697 | 37047 ft | 463 kts | 156° |
| 2026-05-04 20:23 | 48.32444 | 19.20711 | 37039 ft | 463 kts | 156° |
| 2026-05-04 20:24 | 48.26580 | 19.24719 | 37052 ft | 463 kts | 156° |
| 2026-05-04 20:24 | 48.20720 | 19.28711 | 37044 ft | 462 kts | 156° |
| 2026-05-04 20:25 | 48.14862 | 19.32693 | 37051 ft | 462 kts | 156° |
| 2026-05-04 20:25 | 48.08996 | 19.36614 | 37027 ft | 462 kts | 160° |
| 2026-05-04 20:26 | 48.02847 | 19.39271 | 37051 ft | 460 kts | 167° |
| 2026-05-04 20:26 | 47.96634 | 19.41572 | 37046 ft | 460 kts | 167° |
| 2026-05-04 20:27 | 47.90417 | 19.43914 | 37052 ft | 461 kts | 167° |
| 2026-05-04 20:27 | 47.84210 | 19.46307 | 37051 ft | 461 kts | 166° |
| 2026-05-04 20:28 | 47.77992 | 19.48716 | 37047 ft | 462 kts | 166° |
| 2026-05-04 20:28 | 47.71774 | 19.51126 | 37040 ft | 462 kts | 166° |
| 2026-05-04 20:29 | 47.65544 | 19.53532 | 37047 ft | 463 kts | 166° |
| 2026-05-04 20:29 | 47.59304 | 19.55936 | 37042 ft | 463 kts | 166° |
| 2026-05-04 20:30 | 47.53062 | 19.58332 | 37057 ft | 464 kts | 166° |
| 2026-05-04 20:30 | 47.46810 | 19.60729 | 37054 ft | 464 kts | 166° |
| 2026-05-04 20:31 | 47.40557 | 19.63118 | 37051 ft | 464 kts | 166° |
| 2026-05-04 20:31 | 47.34340 | 19.65489 | 37043 ft | 465 kts | 166° |
| 2026-05-04 20:32 | 47.28072 | 19.67872 | 37043 ft | 465 kts | 166° |
| 2026-05-04 20:32 | 47.21804 | 19.70250 | 37050 ft | 465 kts | 166° |
| 2026-05-04 20:33 | 47.15532 | 19.72625 | 37052 ft | 465 kts | 166° |
| 2026-05-04 20:33 | 47.09264 | 19.74992 | 37066 ft | 466 kts | 166° |
| 2026-05-04 20:34 | 47.02985 | 19.77356 | 37077 ft | 466 kts | 166° |
| 2026-05-04 20:34 | 46.97322 | 19.79484 | 37081 ft | 465 kts | 166° |
| 2026-05-04 20:35 | 46.91051 | 19.81836 | 37058 ft | 465 kts | 166° |
| 2026-05-04 20:35 | 46.84787 | 19.84179 | 37080 ft | 465 kts | 166° |
| 2026-05-04 20:36 | 46.78520 | 19.86518 | 37073 ft | 465 kts | 166° |
| 2026-05-04 20:36 | 46.72275 | 19.88847 | 37081 ft | 464 kts | 166° |
| 2026-05-04 20:37 | 46.66011 | 19.91170 | 37048 ft | 465 kts | 166° |
| 2026-05-04 20:37 | 46.59754 | 19.93486 | 37069 ft | 464 kts | 166° |
| 2026-05-04 20:38 | 46.53486 | 19.95802 | 37063 ft | 464 kts | 166° |
| 2026-05-04 20:38 | 46.47267 | 19.98095 | 37061 ft | 464 kts | 166° |
| 2026-05-04 20:39 | 46.41003 | 20.00401 | 37060 ft | 465 kts | 166° |
| 2026-05-04 20:39 | 46.34692 | 20.02716 | 37061 ft | 465 kts | 166° |
| 2026-05-04 20:40 | 46.28471 | 20.04994 | 37058 ft | 465 kts | 166° |
| 2026-05-04 20:40 | 46.22192 | 20.07289 | 37051 ft | 465 kts | 166° |
| 2026-05-04 20:41 | 46.15916 | 20.09630 | 37059 ft | 466 kts | 163° |
| 2026-05-04 20:41 | 46.09882 | 20.13039 | 37065 ft | 466 kts | 157° |
| 2026-05-04 20:42 | 46.03924 | 20.16728 | 37065 ft | 467 kts | 157° |
| 2026-05-04 20:42 | 45.98062 | 20.20310 | 37061 ft | 467 kts | 157° |
| 2026-05-04 20:43 | 45.92057 | 20.23904 | 37066 ft | 468 kts | 158° |
| 2026-05-04 20:43 | 45.86035 | 20.27472 | 37065 ft | 468 kts | 158° |
| 2026-05-04 20:44 | 45.80009 | 20.31027 | 37061 ft | 469 kts | 158° |
| 2026-05-04 20:44 | 45.73978 | 20.34580 | 37052 ft | 469 kts | 158° |
| 2026-05-04 20:45 | 45.67944 | 20.38130 | 37070 ft | 469 kts | 158° |
| 2026-05-04 20:45 | 45.61906 | 20.41674 | 37071 ft | 469 kts | 158° |
| 2026-05-04 20:46 | 45.56049 | 20.45103 | 37065 ft | 469 kts | 158° |
| 2026-05-04 20:46 | 45.50001 | 20.48636 | 37066 ft | 469 kts | 158° |
| 2026-05-04 20:47 | 45.43954 | 20.52160 | 37070 ft | 470 kts | 158° |
| 2026-05-04 20:47 | 45.38160 | 20.55528 | 37068 ft | 470 kts | 158° |
| 2026-05-04 20:48 | 45.32125 | 20.59029 | 37076 ft | 471 kts | 158° |
| 2026-05-04 20:48 | 45.26057 | 20.62540 | 37073 ft | 471 kts | 158° |
| 2026-05-04 20:49 | 45.20562 | 20.65714 | 37072 ft | 472 kts | 158° |
| 2026-05-04 20:49 | 45.14622 | 20.69136 | 37072 ft | 472 kts | 158° |
| 2026-05-04 20:50 | 45.08539 | 20.72633 | 37074 ft | 472 kts | 158° |
| 2026-05-04 20:50 | 45.02488 | 20.76105 | 37074 ft | 473 kts | 158° |
| 2026-05-04 20:51 | 44.96383 | 20.79599 | 37082 ft | 473 kts | 158° |
| 2026-05-04 20:51 | 44.90309 | 20.83067 | 37078 ft | 474 kts | 158° |
| 2026-05-04 20:52 | 44.84208 | 20.86542 | 37076 ft | 474 kts | 158° |
| 2026-05-04 20:52 | 44.78087 | 20.90022 | 37073 ft | 475 kts | 158° |
| 2026-05-04 20:53 | 44.72005 | 20.93473 | 37086 ft | 475 kts | 158° |
| 2026-05-04 20:53 | 44.65871 | 20.96943 | 37086 ft | 475 kts | 158° |
| 2026-05-04 20:54 | 44.59738 | 21.00403 | 37062 ft | 475 kts | 158° |
| 2026-05-04 20:54 | 44.53606 | 21.03857 | 37081 ft | 474 kts | 158° |
| 2026-05-04 20:55 | 44.47489 | 21.07295 | 37084 ft | 474 kts | 158° |
| 2026-05-04 20:55 | 44.41368 | 21.10727 | 37097 ft | 473 kts | 158° |
| 2026-05-04 20:56 | 44.35259 | 21.14144 | 37078 ft | 472 kts | 158° |
| 2026-05-04 20:56 | 44.29165 | 21.17546 | 37097 ft | 471 kts | 158° |
| 2026-05-04 20:57 | 44.23076 | 21.20936 | 37080 ft | 471 kts | 158° |
| 2026-05-04 20:57 | 44.16987 | 21.24320 | 37094 ft | 471 kts | 158° |
| 2026-05-04 20:58 | 44.10890 | 21.27700 | 37087 ft | 472 kts | 158° |
| 2026-05-04 20:58 | 44.04825 | 21.31055 | 37108 ft | 473 kts | 158° |
| 2026-05-04 20:59 | 43.98705 | 21.34434 | 37098 ft | 474 kts | 158° |
| 2026-05-04 20:59 | 43.92566 | 21.37814 | 37090 ft | 476 kts | 158° |
| 2026-05-04 21:00 | 43.86400 | 21.41202 | 37114 ft | 477 kts | 158° |
| 2026-05-04 21:00 | 43.80217 | 21.44592 | 37102 ft | 479 kts | 158° |
| 2026-05-04 21:01 | 43.74017 | 21.47984 | 37104 ft | 480 kts | 158° |
| 2026-05-04 21:01 | 43.67804 | 21.51376 | 37091 ft | 481 kts | 158° |
| 2026-05-04 21:02 | 43.61583 | 21.54761 | 37098 ft | 480 kts | 158° |
| 2026-05-04 21:02 | 43.55370 | 21.58137 | 37135 ft | 480 kts | 158° |
| 2026-05-04 21:03 | 43.49159 | 21.61506 | 37103 ft | 480 kts | 158° |
| 2026-05-04 21:03 | 43.42956 | 21.64863 | 37099 ft | 478 kts | 158° |
| 2026-05-04 21:04 | 43.36759 | 21.68208 | 37102 ft | 478 kts | 158° |
| 2026-05-04 21:04 | 43.31615 | 21.70978 | 37103 ft | 478 kts | 158° |
| 2026-05-04 21:05 | 43.25429 | 21.74304 | 37094 ft | 477 kts | 158° |
| 2026-05-04 21:05 | 43.19257 | 21.77616 | 37111 ft | 476 kts | 158° |
| 2026-05-04 21:06 | 43.13071 | 21.80925 | 37104 ft | 477 kts | 158° |
| 2026-05-04 21:06 | 43.06890 | 21.84226 | 37131 ft | 477 kts | 158° |
| 2026-05-04 21:07 | 43.00700 | 21.87527 | 37124 ft | 477 kts | 159° |
| 2026-05-04 21:07 | 42.94509 | 21.90820 | 37124 ft | 478 kts | 159° |
| 2026-05-04 21:08 | 42.88316 | 21.94107 | 37127 ft | 478 kts | 159° |
| 2026-05-04 21:08 | 42.82110 | 21.97392 | 37128 ft | 479 kts | 159° |
| 2026-05-04 21:09 | 42.75899 | 22.00674 | 37131 ft | 479 kts | 159° |
| 2026-05-04 21:09 | 42.69685 | 22.03951 | 37126 ft | 479 kts | 159° |
| 2026-05-04 21:10 | 42.63508 | 22.07200 | 37151 ft | 479 kts | 159° |
| 2026-05-04 21:10 | 42.57287 | 22.10468 | 37137 ft | 480 kts | 159° |
| 2026-05-04 21:11 | 42.51056 | 22.13733 | 37154 ft | 480 kts | 159° |
| 2026-05-04 21:11 | 42.44817 | 22.16996 | 37142 ft | 481 kts | 159° |
| 2026-05-04 21:12 | 42.38567 | 22.20257 | 37137 ft | 481 kts | 159° |
| 2026-05-04 21:12 | 42.32437 | 22.23446 | 37143 ft | 480 kts | 159° |
| 2026-05-04 21:13 | 42.25986 | 22.25689 | 37159 ft | 479 kts | 171° |
| 2026-05-04 21:13 | 42.19408 | 22.27125 | 37149 ft | 478 kts | 172° |
| 2026-05-04 21:14 | 42.12842 | 22.28560 | 37143 ft | 478 kts | 171° |
| 2026-05-04 21:14 | 42.06282 | 22.30070 | 37134 ft | 478 kts | 171° |
| 2026-05-04 21:15 | 41.99718 | 22.31613 | 37135 ft | 479 kts | 171° |
| 2026-05-04 21:15 | 41.93159 | 22.33153 | 37134 ft | 479 kts | 171° |
| 2026-05-04 21:16 | 41.86596 | 22.34687 | 37130 ft | 479 kts | 171° |
| 2026-05-04 21:16 | 41.80022 | 22.36223 | 37129 ft | 479 kts | 171° |
| 2026-05-04 21:17 | 41.73443 | 22.37754 | 37117 ft | 480 kts | 171° |
| 2026-05-04 21:17 | 41.66859 | 22.39283 | 37120 ft | 480 kts | 171° |
| 2026-05-04 21:18 | 41.60269 | 22.40812 | 37135 ft | 481 kts | 171° |
| 2026-05-04 21:18 | 41.53914 | 22.42282 | 37110 ft | 482 kts | 171° |
| 2026-05-04 21:19 | 41.47365 | 22.43793 | 37115 ft | 483 kts | 171° |
| 2026-05-04 21:19 | 41.40732 | 22.45321 | 37116 ft | 484 kts | 171° |
| 2026-05-04 21:20 | 41.34097 | 22.46846 | 37110 ft | 484 kts | 171° |
| 2026-05-04 21:20 | 41.27463 | 22.48369 | 37106 ft | 483 kts | 171° |
| 2026-05-04 21:21 | 41.20852 | 22.49882 | 37101 ft | 482 kts | 171° |
| 2026-05-04 21:21 | 41.14240 | 22.51394 | 37094 ft | 481 kts | 171° |
| 2026-05-04 21:22 | 41.07610 | 22.52406 | 37103 ft | 479 kts | 176° |
| 2026-05-04 21:22 | 41.00957 | 22.53057 | 37098 ft | 479 kts | 177° |
| 2026-05-04 21:23 | 40.94311 | 22.53717 | 37082 ft | 479 kts | 177° |
| 2026-05-04 21:23 | 40.87670 | 22.54417 | 37106 ft | 479 kts | 176° |
| 2026-05-04 21:24 | 40.81029 | 22.55132 | 37095 ft | 479 kts | 176° |
| 2026-05-04 21:24 | 40.74374 | 22.55849 | 37085 ft | 480 kts | 176° |
| 2026-05-04 21:25 | 40.67707 | 22.56564 | 37102 ft | 481 kts | 176° |
| 2026-05-04 21:25 | 40.61029 | 22.57278 | 37099 ft | 483 kts | 176° |
| 2026-05-04 21:26 | 40.54367 | 22.57987 | 37090 ft | 484 kts | 176° |
| 2026-05-04 21:26 | 40.47656 | 22.58719 | 37092 ft | 484 kts | 176° |
| 2026-05-04 21:27 | 40.40893 | 22.59431 | 37101 ft | 485 kts | 176° |
| 2026-05-04 21:27 | 40.34457 | 22.60159 | 37083 ft | 486 kts | 172° |
| 2026-05-04 21:28 | 40.28135 | 22.62579 | 37107 ft | 487 kts | 157° |
| 2026-05-04 21:28 | 40.22740 | 22.65639 | 37085 ft | 488 kts | 156° |
| 2026-05-04 21:29 | 40.17630 | 22.68559 | 37091 ft | 488 kts | 156° |
| 2026-05-04 21:29 | 40.13038 | 22.71146 | 37105 ft | 488 kts | 157° |
| 2026-05-04 21:30 | 40.08363 | 22.73747 | 37078 ft | 489 kts | 157° |
| 2026-05-04 21:30 | 40.03668 | 22.76341 | 37103 ft | 489 kts | 157° |
| 2026-05-04 21:31 | 39.96708 | 22.80172 | 37112 ft | 489 kts | 157° |
| 2026-05-04 21:32 | 39.92029 | 22.82744 | 37098 ft | 488 kts | 157° |
| 2026-05-04 21:32 | 39.87357 | 22.85310 | 37087 ft | 487 kts | 157° |
| 2026-05-04 21:33 | 39.82730 | 22.87848 | 37097 ft | 486 kts | 157° |
| 2026-05-04 21:33 | 39.78023 | 22.90426 | 37095 ft | 485 kts | 157° |
| 2026-05-04 21:34 | 39.73439 | 22.92933 | 37103 ft | 485 kts | 157° |
| 2026-05-04 21:34 | 39.68912 | 22.95405 | 37120 ft | 485 kts | 158° |
| 2026-05-04 21:35 | 39.64268 | 22.97938 | 37098 ft | 486 kts | 158° |
| 2026-05-04 21:35 | 39.58083 | 23.01305 | 37108 ft | 486 kts | 158° |
| 2026-05-04 21:36 | 39.51837 | 23.04698 | 37119 ft | 487 kts | 158° |
| 2026-05-04 21:36 | 39.45574 | 23.08095 | 37121 ft | 489 kts | 158° |
| 2026-05-04 21:37 | 39.39263 | 23.11511 | 36557 ft | 498 kts | 158° |
| 2026-05-04 21:37 | 39.36072 | 23.13235 | 36004 ft | 494 kts | 158° |
| 2026-05-04 21:37 | 39.32903 | 23.14946 | 35323 ft | 494 kts | 157° |
| 2026-05-04 21:37 | 39.29734 | 23.16655 | 34675 ft | 493 kts | 157° |
| 2026-05-04 21:38 | 39.26577 | 23.18355 | 33968 ft | 492 kts | 157° |
| 2026-05-04 21:38 | 39.23417 | 23.20057 | 33159 ft | 492 kts | 157° |
| 2026-05-04 21:38 | 39.20275 | 23.21747 | 32608 ft | 485 kts | 157° |
| 2026-05-04 21:38 | 39.17181 | 23.23409 | 31827 ft | 482 kts | 157° |
| 2026-05-04 21:39 | 39.14073 | 23.25078 | 31054 ft | 482 kts | 157° |
| 2026-05-04 21:39 | 39.11027 | 23.26711 | 30680 ft | 470 kts | 157° |
| 2026-05-04 21:39 | 39.08006 | 23.28329 | 29994 ft | 468 kts | 157° |
| 2026-05-04 21:39 | 39.05020 | 23.29926 | 29351 ft | 461 kts | 157° |
| 2026-05-04 21:40 | 39.02082 | 23.31497 | 28825 ft | 453 kts | 157° |
| 2026-05-04 21:40 | 38.99194 | 23.33040 | 28293 ft | 446 kts | 157° |
| 2026-05-04 21:40 | 38.96345 | 23.34561 | 27768 ft | 440 kts | 157° |
| 2026-05-04 21:40 | 38.93641 | 23.36003 | 27273 ft | 434 kts | 157° |
| 2026-05-04 21:41 | 38.91290 | 23.37256 | 26830 ft | 430 kts | 157° |
| 2026-05-04 21:41 | 38.89095 | 23.38426 | 26428 ft | 426 kts | 157° |
| 2026-05-04 21:41 | 38.86977 | 23.39554 | 26021 ft | 423 kts | 156° |
| 2026-05-04 21:41 | 38.84452 | 23.40897 | 25548 ft | 419 kts | 156° |
| 2026-05-04 21:42 | 38.81770 | 23.42323 | 25051 ft | 416 kts | 156° |
| 2026-05-04 21:42 | 38.79108 | 23.43736 | 24559 ft | 412 kts | 156° |
| 2026-05-04 21:42 | 38.76464 | 23.45138 | 24067 ft | 410 kts | 156° |
| 2026-05-04 21:42 | 38.73835 | 23.46531 | 23554 ft | 408 kts | 156° |
| 2026-05-04 21:43 | 38.71225 | 23.47913 | 22987 ft | 405 kts | 156° |
| 2026-05-04 21:43 | 38.68628 | 23.49287 | 22481 ft | 401 kts | 156° |
| 2026-05-04 21:43 | 38.66061 | 23.50645 | 21985 ft | 397 kts | 156° |
| 2026-05-04 21:43 | 38.63516 | 23.51991 | 21505 ft | 394 kts | 156° |
| 2026-05-04 21:44 | 38.60994 | 23.53323 | 21018 ft | 390 kts | 156° |
| 2026-05-04 21:44 | 38.58493 | 23.54643 | 20537 ft | 387 kts | 156° |
| 2026-05-04 21:44 | 38.56013 | 23.55951 | 20062 ft | 385 kts | 156° |
| 2026-05-04 21:44 | 38.53545 | 23.57252 | 19593 ft | 382 kts | 156° |
| 2026-05-04 21:45 | 38.51095 | 23.58542 | 19120 ft | 380 kts | 156° |
| 2026-05-04 21:45 | 38.48652 | 23.59827 | 18655 ft | 379 kts | 156° |
| 2026-05-04 21:45 | 38.46218 | 23.61107 | 18124 ft | 378 kts | 156° |
| 2026-05-04 21:45 | 38.43783 | 23.62385 | 17516 ft | 378 kts | 156° |
| 2026-05-04 21:46 | 38.41360 | 23.63658 | 17022 ft | 375 kts | 157° |
| 2026-05-04 21:46 | 38.38955 | 23.64919 | 16542 ft | 373 kts | 157° |
| 2026-05-04 21:46 | 38.36566 | 23.66172 | 16071 ft | 370 kts | 157° |
| 2026-05-04 21:46 | 38.34197 | 23.67414 | 15608 ft | 368 kts | 157° |
| 2026-05-04 21:47 | 38.31834 | 23.68651 | 15154 ft | 365 kts | 157° |
| 2026-05-04 21:47 | 38.29488 | 23.69879 | 14694 ft | 364 kts | 156° |
| 2026-05-04 21:47 | 38.27185 | 23.71084 | 14249 ft | 362 kts | 156° |
| 2026-05-04 21:47 | 38.24828 | 23.72316 | 13779 ft | 360 kts | 156° |
| 2026-05-04 21:48 | 38.22513 | 23.73523 | 13276 ft | 359 kts | 157° |
| 2026-05-04 21:48 | 38.20206 | 23.74722 | 12774 ft | 358 kts | 158° |
| 2026-05-04 21:48 | 38.17784 | 23.75404 | 12279 ft | 358 kts | 180° |
| 2026-05-04 21:48 | 38.15357 | 23.74841 | 11892 ft | 353 kts | 202° |
| 2026-05-04 21:49 | 38.13229 | 23.73379 | 11497 ft | 346 kts | 215° |
| 2026-05-04 21:49 | 38.11262 | 23.71719 | 11059 ft | 344 kts | 216° |
| 2026-05-04 21:49 | 38.09294 | 23.70021 | 10765 ft | 338 kts | 216° |
| 2026-05-04 21:49 | 38.07380 | 23.68376 | 10607 ft | 328 kts | 216° |
| 2026-05-04 21:50 | 38.05514 | 23.66785 | 10460 ft | 318 kts | 216° |
| 2026-05-04 21:50 | 38.03698 | 23.65244 | 10313 ft | 310 kts | 216° |
| 2026-05-04 21:50 | 38.01927 | 23.63754 | 10171 ft | 302 kts | 216° |
| 2026-05-04 21:50 | 38.00204 | 23.62308 | 10057 ft | 293 kts | 216° |
| 2026-05-04 21:51 | 37.98515 | 23.60892 | 9815 ft | 290 kts | 216° |
| 2026-05-04 21:51 | 37.96839 | 23.59486 | 9544 ft | 288 kts | 216° |
| 2026-05-04 21:51 | 37.95172 | 23.58093 | 9250 ft | 286 kts | 216° |
| 2026-05-04 21:51 | 37.93522 | 23.56714 | 8968 ft | 284 kts | 216° |
| 2026-05-04 21:52 | 37.92409 | 23.55784 | 8779 ft | 283 kts | 215° |
| 2026-05-04 21:52 | 37.90238 | 23.53971 | 8408 ft | 281 kts | 215° |
| 2026-05-04 21:52 | 37.89136 | 23.53053 | 8236 ft | 280 kts | 215° |
| 2026-05-04 21:52 | 37.87515 | 23.51701 | 7977 ft | 278 kts | 215° |
| 2026-05-04 21:53 | 37.85901 | 23.50356 | 7711 ft | 277 kts | 215° |
| 2026-05-04 21:53 | 37.84462 | 23.49158 | 7477 ft | 276 kts | 214° |
| 2026-05-04 21:53 | 37.82871 | 23.47834 | 7217 ft | 274 kts | 214° |
| 2026-05-04 21:53 | 37.81237 | 23.46603 | 6964 ft | 273 kts | 201° |
| 2026-05-04 21:54 | 37.79390 | 23.46329 | 6708 ft | 267 kts | 168° |
| 2026-05-04 21:54 | 37.77712 | 23.47183 | 6462 ft | 257 kts | 138° |
| 2026-05-04 21:54 | 37.76566 | 23.48790 | 6385 ft | 240 kts | 116° |
| 2026-05-04 21:54 | 37.75978 | 23.50704 | 6282 ft | 231 kts | 96° |
| 2026-05-04 21:55 | 37.75764 | 23.52706 | 6195 ft | 231 kts | 91° |
| 2026-05-04 21:55 | 37.75617 | 23.54750 | 6000 ft | 237 kts | 90° |
| 2026-05-04 21:55 | 37.75468 | 23.56847 | 5750 ft | 240 kts | 91° |
| 2026-05-04 21:55 | 37.75310 | 23.58940 | 5500 ft | 239 kts | 91° |
| 2026-05-04 21:56 | 37.75147 | 23.61003 | 5284 ft | 232 kts | 92° |
| 2026-05-04 21:56 | 37.74987 | 23.63011 | 5027 ft | 229 kts | 92° |
| 2026-05-04 21:56 | 37.74839 | 23.64857 | 4797 ft | 230 kts | 92° |
| 2026-05-04 21:56 | 37.74681 | 23.66835 | 4557 ft | 230 kts | 92° |
| 2026-05-04 21:57 | 37.74519 | 23.68832 | 4308 ft | 231 kts | 92° |
| 2026-05-04 21:57 | 37.74356 | 23.70830 | 4067 ft | 232 kts | 92° |
| 2026-05-04 21:57 | 37.74195 | 23.72852 | 3964 ft | 226 kts | 91° |
| 2026-05-04 21:57 | 37.74465 | 23.74768 | 3768 ft | 224 kts | 57° |
| 2026-05-04 21:58 | 37.75581 | 23.76098 | 3569 ft | 222 kts | 32° |
| 2026-05-04 21:58 | 37.76846 | 23.77230 | 3306 ft | 223 kts | 36° |
| 2026-05-04 21:58 | 37.78050 | 23.78395 | 3058 ft | 213 kts | 36° |
| 2026-05-04 21:58 | 37.79197 | 23.79501 | 2855 ft | 202 kts | 35° |
| 2026-05-04 21:59 | 37.80289 | 23.80547 | 2683 ft | 192 kts | 35° |
| 2026-05-04 21:59 | 37.81314 | 23.81529 | 2520 ft | 184 kts | 35° |
| 2026-05-04 21:59 | 37.82355 | 23.82522 | 2385 ft | 185 kts | 35° |
| 2026-05-04 21:59 | 37.83363 | 23.83486 | 2239 ft | 182 kts | 35° |
| 2026-05-04 22:00 | 37.84358 | 23.84439 | 2131 ft | 172 kts | 35° |
| 2026-05-04 22:00 | 37.85264 | 23.85306 | 1956 ft | 156 kts | 34° |
| 2026-05-04 22:00 | 37.86101 | 23.86104 | 1837 ft | 149 kts | 34° |
| 2026-05-04 22:00 | 37.86933 | 23.86901 | 1635 ft | 149 kts | 35° |
| 2026-05-04 22:01 | 37.87740 | 23.87672 | 1444 ft | 143 kts | 34° |
| 2026-05-04 22:01 | 37.88522 | 23.88429 | 1220 ft | 142 kts | 37° |
| 2026-05-04 22:01 | 37.89302 | 23.89202 | 1025 ft | 142 kts | 36° |
| 2026-05-04 22:01 | 37.90098 | 23.89941 | 840 ft | 142 kts | 34° |
| 2026-05-04 22:02 | 37.90889 | 23.90690 | 653 ft | 142 kts | 35° |
| 2026-05-04 22:02 | 37.91677 | 23.91444 | 485 ft | 143 kts | 35° |
| 2026-05-04 22:02 | 37.92478 | 23.92208 | 330 ft | 145 kts | 36° |
| 2026-05-04 22:02 | 37.93223 | 23.92913 | 290 ft | 111 kts | 36° |
| 2026-05-04 22:03 | 37.93669 | 23.93334 | 290 ft | 49 kts | 37° |
| 2026-05-04 22:03 | 37.93828 | 23.93492 | 292 ft | 24 kts | 44° |
| 2026-05-04 22:03 | 37.93918 | 23.93656 | 293 ft | 23 kts | 64° |
| 2026-05-04 22:03 | 37.93950 | 23.93782 | 297 ft | 11 kts | 110° |
| 2026-05-04 22:04 | 37.93881 | 23.93810 | 300 ft | 14 kts | 204° |
| 2026-05-04 22:04 | 37.93776 | 23.93715 | 299 ft | 23 kts | 216° |
| 2026-05-04 22:04 | 37.93648 | 23.93594 | 300 ft | 23 kts | 217° |
| 2026-05-04 22:04 | 37.93528 | 23.93479 | 298 ft | 20 kts | 217° |
| 2026-05-04 22:05 | 37.93446 | 23.93435 | 301 ft | 13 kts | 164° |
| 2026-05-04 22:05 | 37.93386 | 23.93517 | 301 ft | 13 kts | 126° |
| 2026-05-04 22:05 | 37.93335 | 23.93608 | 301 ft | 13 kts | 128° |
| 2026-05-04 22:05 | 37.93272 | 23.93708 | 300 ft | 17 kts | 128° |
| 2026-05-04 22:06 | 37.93191 | 23.93844 | 302 ft | 22 kts | 126° |
| 2026-05-04 22:06 | 37.93098 | 23.94000 | 304 ft | 23 kts | 128° |
| 2026-05-04 22:06 | 37.93034 | 23.94113 | 302 ft | 12 kts | 125° |
| 2026-05-04 22:06 | 37.93023 | 23.94133 | 300 ft | 0 kts | 124° |
| 2026-05-04 22:07 | 37.93015 | 23.94146 | 300 ft | 5 kts | 123° |
| 2026-05-04 22:07 | 37.93038 | 23.94194 | 303 ft | 7 kts | 38° |
| 2026-05-04 22:08 | 37.93075 | 23.94230 | 301 ft | 3 kts | 37° |
| 2026-05-04 22:08 | 37.93079 | 23.94233 | 300 ft | 0 kts | 37° |